sensor_id;sensor_type;location;lat;lon;timestamp;P1;durP1;ratioP1;P2;durP2;ratioP2
32365;SDS011;18837;46.832;16.838;2022-09-03T00:04:59;2.67;;;1.30;;
32365;SDS011;18837;46.832;16.838;2022-09-03T00:08:22;2.60;;;1.40;;
32365;SDS011;18837;46.832;16.838;2022-09-03T00:10:58;2.70;;;1.43;;
32365;SDS011;18837;46.832;16.838;2022-09-03T00:13:37;2.40;;;1.43;;
32365;SDS011;18837;46.832;16.838;2022-09-03T00:16:08;1.50;;;1.37;;
32365;SDS011;18837;46.832;16.838;2022-09-03T00:18:42;1.73;;;1.20;;
32365;SDS011;18837;46.832;16.838;2022-09-03T00:24:42;1.40;;;1.20;;
32365;SDS011;18837;46.832;16.838;2022-09-03T00:27:20;1.73;;;1.30;;
32365;SDS011;18837;46.832;16.838;2022-09-03T00:29:51;2.47;;;1.50;;
32365;SDS011;18837;46.832;16.838;2022-09-03T00:32:28;3.07;;;1.40;;
32365;SDS011;18837;46.832;16.838;2022-09-03T00:35:03;5.23;;;1.70;;
32365;SDS011;18837;46.832;16.838;2022-09-03T00:37:38;1.47;;;1.27;;
32365;SDS011;18837;46.832;16.838;2022-09-03T00:40:06;1.30;;;1.20;;
32365;SDS011;18837;46.832;16.838;2022-09-03T00:42:55;1.47;;;1.30;;
32365;SDS011;18837;46.832;16.838;2022-09-03T00:48:31;1.63;;;1.23;;
32365;SDS011;18837;46.832;16.838;2022-09-03T00:54:41;1.30;;;1.20;;
32365;SDS011;18837;46.832;16.838;2022-09-03T01:00:20;2.43;;;1.30;;
32365;SDS011;18837;46.832;16.838;2022-09-03T01:03:00;2.87;;;1.60;;
32365;SDS011;18837;46.832;16.838;2022-09-03T01:05:41;1.57;;;1.20;;
32365;SDS011;18837;46.832;16.838;2022-09-03T01:11:29;1.40;;;1.30;;
32365;SDS011;18837;46.832;16.838;2022-09-03T01:22:25;1.23;;;1.00;;
32365;SDS011;18837;46.832;16.838;2022-09-03T01:30:57;1.60;;;1.30;;
32365;SDS011;18837;46.832;16.838;2022-09-03T01:33:35;2.33;;;1.40;;
32365;SDS011;18837;46.832;16.838;2022-09-03T01:39:16;1.50;;;1.27;;
32365;SDS011;18837;46.832;16.838;2022-09-03T01:43:09;1.40;;;1.30;;
32365;SDS011;18837;46.832;16.838;2022-09-03T01:50:37;2.40;;;1.27;;
32365;SDS011;18837;46.832;16.838;2022-09-03T01:55:42;1.47;;;1.10;;
32365;SDS011;18837;46.832;16.838;2022-09-03T02:04:58;1.50;;;1.10;;
32365;SDS011;18837;46.832;16.838;2022-09-03T02:07:36;1.73;;;1.30;;
32365;SDS011;18837;46.832;16.838;2022-09-03T02:10:20;1.40;;;1.30;;
32365;SDS011;18837;46.832;16.838;2022-09-03T02:12:53;2.60;;;1.20;;
32365;SDS011;18837;46.832;16.838;2022-09-03T02:15:28;1.50;;;1.10;;
32365;SDS011;18837;46.832;16.838;2022-09-03T02:17:56;2.10;;;1.40;;
32365;SDS011;18837;46.832;16.838;2022-09-03T02:20:26;1.67;;;1.30;;
32365;SDS011;18837;46.832;16.838;2022-09-03T02:22:53;1.50;;;1.40;;
32365;SDS011;18837;46.832;16.838;2022-09-03T02:25:22;2.37;;;1.27;;
32365;SDS011;18837;46.832;16.838;2022-09-03T02:27:53;2.27;;;1.00;;
32365;SDS011;18837;46.832;16.838;2022-09-03T02:30:35;1.70;;;1.40;;
32365;SDS011;18837;46.832;16.838;2022-09-03T02:33:00;1.17;;;1.03;;
32365;SDS011;18837;46.832;16.838;2022-09-03T02:35:33;1.87;;;1.60;;
32365;SDS011;18837;46.832;16.838;2022-09-03T02:38:09;2.97;;;1.37;;
32365;SDS011;18837;46.832;16.838;2022-09-03T02:40:41;1.30;;;1.20;;
32365;SDS011;18837;46.832;16.838;2022-09-03T02:43:08;2.40;;;1.30;;
32365;SDS011;18837;46.832;16.838;2022-09-03T02:45:54;1.47;;;1.37;;
32365;SDS011;18837;46.832;16.838;2022-09-03T02:48:25;1.40;;;1.10;;
32365;SDS011;18837;46.832;16.838;2022-09-03T02:50:52;1.60;;;1.40;;
32365;SDS011;18837;46.832;16.838;2022-09-03T02:53:18;1.97;;;1.50;;
32365;SDS011;18837;46.832;16.838;2022-09-03T02:55:44;1.87;;;1.43;;
32365;SDS011;18837;46.832;16.838;2022-09-03T02:58:10;1.27;;;1.17;;
32365;SDS011;18837;46.832;16.838;2022-09-03T03:00:36;3.63;;;1.57;;
32365;SDS011;18837;46.832;16.838;2022-09-03T03:03:02;2.10;;;1.33;;
32365;SDS011;18837;46.832;16.838;2022-09-03T03:11:03;2.07;;;1.43;;
32365;SDS011;18837;46.832;16.838;2022-09-03T03:13:30;1.63;;;1.50;;
32365;SDS011;18837;46.832;16.838;2022-09-03T03:15:57;1.70;;;1.40;;
32365;SDS011;18837;46.832;16.838;2022-09-03T03:18:27;1.40;;;1.30;;
32365;SDS011;18837;46.832;16.838;2022-09-03T03:20:53;1.50;;;1.40;;
32365;SDS011;18837;46.832;16.838;2022-09-03T03:23:19;1.77;;;1.23;;
32365;SDS011;18837;46.832;16.838;2022-09-03T03:25:50;2.07;;;1.40;;
32365;SDS011;18837;46.832;16.838;2022-09-03T03:28:16;3.77;;;1.77;;
32365;SDS011;18837;46.832;16.838;2022-09-03T03:30:44;2.97;;;1.40;;
32365;SDS011;18837;46.832;16.838;2022-09-03T03:33:12;1.73;;;1.27;;
32365;SDS011;18837;46.832;16.838;2022-09-03T03:35:41;2.80;;;1.47;;
32365;SDS011;18837;46.832;16.838;2022-09-03T03:38:06;1.50;;;1.40;;
32365;SDS011;18837;46.832;16.838;2022-09-03T03:40:51;1.60;;;1.13;;
32365;SDS011;18837;46.832;16.838;2022-09-03T03:46:22;1.73;;;1.63;;
32365;SDS011;18837;46.832;16.838;2022-09-03T03:48:48;2.03;;;1.30;;
32365;SDS011;18837;46.832;16.838;2022-09-03T03:51:15;2.33;;;1.40;;
32365;SDS011;18837;46.832;16.838;2022-09-03T03:53:41;2.23;;;1.37;;
32365;SDS011;18837;46.832;16.838;2022-09-03T03:56:09;1.80;;;1.40;;
32365;SDS011;18837;46.832;16.838;2022-09-03T03:58:36;2.57;;;1.60;;
32365;SDS011;18837;46.832;16.838;2022-09-03T04:01:15;2.47;;;1.70;;
32365;SDS011;18837;46.832;16.838;2022-09-03T04:03:46;2.83;;;1.47;;
32365;SDS011;18837;46.832;16.838;2022-09-03T04:06:15;2.63;;;1.57;;
32365;SDS011;18837;46.832;16.838;2022-09-03T04:08:43;2.60;;;1.43;;
32365;SDS011;18837;46.832;16.838;2022-09-03T04:11:10;1.73;;;1.30;;
32365;SDS011;18837;46.832;16.838;2022-09-03T04:13:40;3.13;;;1.40;;
32365;SDS011;18837;46.832;16.838;2022-09-03T04:16:25;1.33;;;1.23;;
32365;SDS011;18837;46.832;16.838;2022-09-03T04:19:00;1.43;;;1.33;;
32365;SDS011;18837;46.832;16.838;2022-09-03T04:21:27;3.20;;;1.50;;
32365;SDS011;18837;46.832;16.838;2022-09-03T04:23:54;2.00;;;1.50;;
32365;SDS011;18837;46.832;16.838;2022-09-03T04:26:22;1.50;;;1.40;;
32365;SDS011;18837;46.832;16.838;2022-09-03T04:28:55;2.63;;;1.53;;
32365;SDS011;18837;46.832;16.838;2022-09-03T04:31:24;2.03;;;1.70;;
32365;SDS011;18837;46.832;16.838;2022-09-03T04:34:03;1.60;;;1.47;;
32365;SDS011;18837;46.832;16.838;2022-09-03T04:36:32;3.03;;;1.80;;
32365;SDS011;18837;46.832;16.838;2022-09-03T04:38:59;1.90;;;1.47;;
32365;SDS011;18837;46.832;16.838;2022-09-03T04:41:29;4.03;;;1.60;;
32365;SDS011;18837;46.832;16.838;2022-09-03T04:43:56;1.90;;;1.30;;
32365;SDS011;18837;46.832;16.838;2022-09-03T04:46:23;3.97;;;1.63;;
32365;SDS011;18837;46.832;16.838;2022-09-03T04:54:26;2.77;;;1.57;;
32365;SDS011;18837;46.832;16.838;2022-09-03T04:56:52;4.80;;;1.60;;
32365;SDS011;18837;46.832;16.838;2022-09-03T04:59:18;1.63;;;1.53;;
32365;SDS011;18837;46.832;16.838;2022-09-03T05:01:44;3.37;;;1.40;;
32365;SDS011;18837;46.832;16.838;2022-09-03T05:04:09;1.60;;;1.50;;
32365;SDS011;18837;46.832;16.838;2022-09-03T05:06:35;3.03;;;1.60;;
32365;SDS011;18837;46.832;16.838;2022-09-03T05:09:03;1.60;;;1.37;;
32365;SDS011;18837;46.832;16.838;2022-09-03T05:11:29;2.17;;;1.33;;
32365;SDS011;18837;46.832;16.838;2022-09-03T05:13:56;1.80;;;1.50;;
32365;SDS011;18837;46.832;16.838;2022-09-03T05:16:23;2.77;;;1.40;;
32365;SDS011;18837;46.832;16.838;2022-09-03T05:18:53;1.70;;;1.50;;
32365;SDS011;18837;46.832;16.838;2022-09-03T05:21:21;2.10;;;1.90;;
32365;SDS011;18837;46.832;16.838;2022-09-03T05:23:50;2.63;;;1.67;;
32365;SDS011;18837;46.832;16.838;2022-09-03T05:26:36;3.13;;;1.60;;
32365;SDS011;18837;46.832;16.838;2022-09-03T05:29:04;2.57;;;1.33;;
32365;SDS011;18837;46.832;16.838;2022-09-03T05:31:32;2.13;;;1.60;;
32365;SDS011;18837;46.832;16.838;2022-09-03T05:34:00;2.10;;;1.47;;
32365;SDS011;18837;46.832;16.838;2022-09-03T05:36:28;1.93;;;1.40;;
32365;SDS011;18837;46.832;16.838;2022-09-03T05:38:56;1.40;;;1.30;;
32365;SDS011;18837;46.832;16.838;2022-09-03T05:41:23;2.57;;;1.70;;
32365;SDS011;18837;46.832;16.838;2022-09-03T05:43:50;1.60;;;1.50;;
32365;SDS011;18837;46.832;16.838;2022-09-03T05:46:20;3.63;;;1.50;;
32365;SDS011;18837;46.832;16.838;2022-09-03T05:48:51;2.97;;;1.60;;
32365;SDS011;18837;46.832;16.838;2022-09-03T05:51:17;3.20;;;1.77;;
32365;SDS011;18837;46.832;16.838;2022-09-03T05:53:44;3.10;;;1.40;;
32365;SDS011;18837;46.832;16.838;2022-09-03T05:56:13;1.60;;;1.50;;
32365;SDS011;18837;46.832;16.838;2022-09-03T05:58:42;1.97;;;1.50;;
32365;SDS011;18837;46.832;16.838;2022-09-03T06:01:10;1.70;;;1.60;;
32365;SDS011;18837;46.832;16.838;2022-09-03T06:03:38;1.47;;;1.37;;
32365;SDS011;18837;46.832;16.838;2022-09-03T06:06:05;2.00;;;1.70;;
32365;SDS011;18837;46.832;16.838;2022-09-03T06:08:32;2.10;;;1.80;;
32365;SDS011;18837;46.832;16.838;2022-09-03T06:11:01;3.00;;;1.60;;
32365;SDS011;18837;46.832;16.838;2022-09-03T06:13:44;2.63;;;1.50;;
32365;SDS011;18837;46.832;16.838;2022-09-03T06:16:11;2.57;;;1.80;;
32365;SDS011;18837;46.832;16.838;2022-09-03T06:18:37;1.90;;;1.60;;
32365;SDS011;18837;46.832;16.838;2022-09-03T06:21:04;1.90;;;1.50;;
32365;SDS011;18837;46.832;16.838;2022-09-03T06:23:31;2.50;;;1.60;;
32365;SDS011;18837;46.832;16.838;2022-09-03T06:25:59;1.53;;;1.33;;
32365;SDS011;18837;46.832;16.838;2022-09-03T06:28:27;3.27;;;1.67;;
32365;SDS011;18837;46.832;16.838;2022-09-03T06:30:58;1.80;;;1.60;;
32365;SDS011;18837;46.832;16.838;2022-09-03T06:33:26;2.17;;;1.50;;
32365;SDS011;18837;46.832;16.838;2022-09-03T06:35:56;1.63;;;1.50;;
32365;SDS011;18837;46.832;16.838;2022-09-03T06:38:23;2.17;;;1.80;;
32365;SDS011;18837;46.832;16.838;2022-09-03T06:40:57;2.30;;;1.70;;
32365;SDS011;18837;46.832;16.838;2022-09-03T06:43:31;2.30;;;1.70;;
32365;SDS011;18837;46.832;16.838;2022-09-03T06:46:03;2.03;;;1.70;;
32365;SDS011;18837;46.832;16.838;2022-09-03T06:48:31;2.83;;;1.70;;
32365;SDS011;18837;46.832;16.838;2022-09-03T06:51:00;2.33;;;1.73;;
32365;SDS011;18837;46.832;16.838;2022-09-03T06:53:32;1.93;;;1.57;;
32365;SDS011;18837;46.832;16.838;2022-09-03T06:56:00;2.00;;;1.70;;
32365;SDS011;18837;46.832;16.838;2022-09-03T06:58:28;1.93;;;1.73;;
32365;SDS011;18837;46.832;16.838;2022-09-03T07:01:09;22.13;;;2.47;;
32365;SDS011;18837;46.832;16.838;2022-09-03T07:03:40;4.63;;;2.53;;
32365;SDS011;18837;46.832;16.838;2022-09-03T07:06:10;3.93;;;2.67;;
32365;SDS011;18837;46.832;16.838;2022-09-03T07:08:38;3.23;;;2.13;;
32365;SDS011;18837;46.832;16.838;2022-09-03T07:11:06;10.47;;;3.20;;
32365;SDS011;18837;46.832;16.838;2022-09-03T07:13:38;15.03;;;4.67;;
32365;SDS011;18837;46.832;16.838;2022-09-03T07:16:17;25.13;;;4.73;;
32365;SDS011;18837;46.832;16.838;2022-09-03T07:18:45;11.33;;;4.20;;
32365;SDS011;18837;46.832;16.838;2022-09-03T07:21:16;10.03;;;3.67;;
32365;SDS011;18837;46.832;16.838;2022-09-03T07:23:50;7.60;;;3.20;;
32365;SDS011;18837;46.832;16.838;2022-09-03T07:26:21;10.13;;;4.03;;
32365;SDS011;18837;46.832;16.838;2022-09-03T07:28:51;13.20;;;3.47;;
32365;SDS011;18837;46.832;16.838;2022-09-03T07:31:22;9.17;;;3.27;;
32365;SDS011;18837;46.832;16.838;2022-09-03T07:34:00;10.43;;;2.97;;
32365;SDS011;18837;46.832;16.838;2022-09-03T07:36:30;9.07;;;3.40;;
32365;SDS011;18837;46.832;16.838;2022-09-03T07:39:03;8.73;;;3.03;;
32365;SDS011;18837;46.832;16.838;2022-09-03T07:41:29;8.25;;;3.45;;
32365;SDS011;18837;46.832;16.838;2022-09-03T07:43:57;9.03;;;2.70;;
32365;SDS011;18837;46.832;16.838;2022-09-03T07:46:24;9.40;;;2.97;;
32365;SDS011;18837;46.832;16.838;2022-09-03T07:48:57;7.93;;;3.10;;
32365;SDS011;18837;46.832;16.838;2022-09-03T07:51:26;29.63;;;4.20;;
32365;SDS011;18837;46.832;16.838;2022-09-03T07:53:56;32.45;;;4.82;;
32365;SDS011;18837;46.832;16.838;2022-09-03T07:59:24;16.40;;;3.57;;
32365;SDS011;18837;46.832;16.838;2022-09-03T08:01:50;16.70;;;3.73;;
32365;SDS011;18837;46.832;16.838;2022-09-03T08:04:16;15.57;;;3.43;;
32365;SDS011;18837;46.832;16.838;2022-09-03T08:06:41;14.83;;;3.13;;
32365;SDS011;18837;46.832;16.838;2022-09-03T08:09:09;20.27;;;3.70;;
32365;SDS011;18837;46.832;16.838;2022-09-03T08:11:38;13.13;;;3.00;;
32365;SDS011;18837;46.832;16.838;2022-09-03T08:14:11;14.17;;;3.20;;
32365;SDS011;18837;46.832;16.838;2022-09-03T08:16:42;16.30;;;3.27;;
32365;SDS011;18837;46.832;16.838;2022-09-03T08:19:11;12.63;;;3.27;;
32365;SDS011;18837;46.832;16.838;2022-09-03T08:21:39;8.23;;;3.10;;
32365;SDS011;18837;46.832;16.838;2022-09-03T08:24:06;9.37;;;2.40;;
32365;SDS011;18837;46.832;16.838;2022-09-03T08:26:33;6.70;;;2.57;;
32365;SDS011;18837;46.832;16.838;2022-09-03T08:29:02;5.73;;;2.77;;
32365;SDS011;18837;46.832;16.838;2022-09-03T08:31:50;5.10;;;2.13;;
32365;SDS011;18837;46.832;16.838;2022-09-03T08:34:16;5.23;;;2.53;;
32365;SDS011;18837;46.832;16.838;2022-09-03T08:36:44;6.57;;;2.60;;
32365;SDS011;18837;46.832;16.838;2022-09-03T08:39:12;5.53;;;2.20;;
32365;SDS011;18837;46.832;16.838;2022-09-03T08:47:17;6.43;;;1.80;;
32365;SDS011;18837;46.832;16.838;2022-09-03T08:50:11;2.47;;;1.93;;
32365;SDS011;18837;46.832;16.838;2022-09-03T08:53:11;5.93;;;2.70;;
32365;SDS011;18837;46.832;16.838;2022-09-03T08:56:06;7.17;;;2.67;;
32365;SDS011;18837;46.832;16.838;2022-09-03T08:58:35;4.80;;;2.30;;
32365;SDS011;18837;46.832;16.838;2022-09-03T09:06:22;3.07;;;1.97;;
32365;SDS011;18837;46.832;16.838;2022-09-03T09:14:18;2.97;;;1.93;;
32365;SDS011;18837;46.832;16.838;2022-09-03T09:16:53;6.23;;;2.20;;
32365;SDS011;18837;46.832;16.838;2022-09-03T09:22:28;4.87;;;1.90;;
32365;SDS011;18837;46.832;16.838;2022-09-03T09:25:03;4.83;;;2.40;;
32365;SDS011;18837;46.832;16.838;2022-09-03T09:27:40;3.37;;;1.97;;
32365;SDS011;18837;46.832;16.838;2022-09-03T09:30:16;2.53;;;1.93;;
32365;SDS011;18837;46.832;16.838;2022-09-03T09:32:43;3.00;;;2.00;;
32365;SDS011;18837;46.832;16.838;2022-09-03T09:35:11;1.73;;;1.60;;
32365;SDS011;18837;46.832;16.838;2022-09-03T09:37:50;2.60;;;1.73;;
32365;SDS011;18837;46.832;16.838;2022-09-03T09:40:31;2.80;;;1.73;;
32365;SDS011;18837;46.832;16.838;2022-09-03T09:45:32;2.23;;;1.70;;
32365;SDS011;18837;46.832;16.838;2022-09-03T09:47:59;2.57;;;2.00;;
32365;SDS011;18837;46.832;16.838;2022-09-03T09:50:32;2.37;;;1.80;;
32365;SDS011;18837;46.832;16.838;2022-09-03T09:52:59;3.03;;;1.80;;
32365;SDS011;18837;46.832;16.838;2022-09-03T09:55:32;3.03;;;1.97;;
32365;SDS011;18837;46.832;16.838;2022-09-03T09:58:07;2.00;;;1.53;;
32365;SDS011;18837;46.832;16.838;2022-09-03T10:00:35;2.10;;;1.53;;
32365;SDS011;18837;46.832;16.838;2022-09-03T10:03:05;1.83;;;1.40;;
32365;SDS011;18837;46.832;16.838;2022-09-03T10:05:35;2.17;;;1.50;;
32365;SDS011;18837;46.832;16.838;2022-09-03T10:08:06;1.80;;;1.57;;
32365;SDS011;18837;46.832;16.838;2022-09-03T10:10:45;2.13;;;1.70;;
32365;SDS011;18837;46.832;16.838;2022-09-03T10:13:21;2.10;;;1.60;;
32365;SDS011;18837;46.832;16.838;2022-09-03T10:19:02;2.10;;;1.80;;
32365;SDS011;18837;46.832;16.838;2022-09-03T10:21:42;1.93;;;1.57;;
32365;SDS011;18837;46.832;16.838;2022-09-03T10:24:46;2.20;;;1.80;;
32365;SDS011;18837;46.832;16.838;2022-09-03T10:27:17;3.43;;;1.90;;
32365;SDS011;18837;46.832;16.838;2022-09-03T10:29:44;1.50;;;1.40;;
32365;SDS011;18837;46.832;16.838;2022-09-03T10:43:18;1.40;;;1.30;;
32365;SDS011;18837;46.832;16.838;2022-09-03T10:51:03;1.97;;;1.50;;
32365;SDS011;18837;46.832;16.838;2022-09-03T11:11:59;1.77;;;1.47;;
32365;SDS011;18837;46.832;16.838;2022-09-03T11:14:43;1.40;;;1.30;;
32365;SDS011;18837;46.832;16.838;2022-09-03T11:17:13;1.37;;;1.27;;
32365;SDS011;18837;46.832;16.838;2022-09-03T11:20:09;1.73;;;1.57;;
32365;SDS011;18837;46.832;16.838;2022-09-03T11:22:41;2.10;;;1.40;;
32365;SDS011;18837;46.832;16.838;2022-09-03T11:25:09;1.57;;;1.37;;
32365;SDS011;18837;46.832;16.838;2022-09-03T11:30:11;2.63;;;1.40;;
32365;SDS011;18837;46.832;16.838;2022-09-03T11:35:26;3.00;;;1.40;;
32365;SDS011;18837;46.832;16.838;2022-09-03T11:38:02;1.70;;;1.57;;
32365;SDS011;18837;46.832;16.838;2022-09-03T11:40:36;2.30;;;1.67;;
32365;SDS011;18837;46.832;16.838;2022-09-03T11:43:25;1.87;;;1.40;;
32365;SDS011;18837;46.832;16.838;2022-09-03T11:49:09;1.77;;;1.50;;
32365;SDS011;18837;46.832;16.838;2022-09-03T11:51:59;2.60;;;1.47;;
32365;SDS011;18837;46.832;16.838;2022-09-03T11:54:26;1.70;;;1.60;;
32365;SDS011;18837;46.832;16.838;2022-09-03T11:57:05;3.17;;;1.60;;
32365;SDS011;18837;46.832;16.838;2022-09-03T11:59:40;4.50;;;1.67;;
32365;SDS011;18837;46.832;16.838;2022-09-03T12:02:26;2.60;;;1.77;;
32365;SDS011;18837;46.832;16.838;2022-09-03T12:11:19;2.27;;;1.60;;
32365;SDS011;18837;46.832;16.838;2022-09-03T12:13:47;1.50;;;1.40;;
32365;SDS011;18837;46.832;16.838;2022-09-03T12:19:55;2.40;;;1.53;;
32365;SDS011;18837;46.832;16.838;2022-09-03T12:22:15;1.80;;;1.43;;
32365;SDS011;18837;46.832;16.838;2022-09-03T12:24:43;2.33;;;1.53;;
32365;SDS011;18837;46.832;16.838;2022-09-03T12:27:11;1.67;;;1.57;;
32365;SDS011;18837;46.832;16.838;2022-09-03T12:29:51;2.43;;;1.40;;
32365;SDS011;18837;46.832;16.838;2022-09-03T12:32:31;2.40;;;1.60;;
32365;SDS011;18837;46.832;16.838;2022-09-03T12:37:38;3.13;;;1.80;;
32365;SDS011;18837;46.832;16.838;2022-09-03T12:40:16;1.90;;;1.50;;
32365;SDS011;18837;46.832;16.838;2022-09-03T12:42:42;1.67;;;1.50;;
32365;SDS011;18837;46.832;16.838;2022-09-03T12:45:08;1.70;;;1.60;;
32365;SDS011;18837;46.832;16.838;2022-09-03T12:47:45;4.73;;;1.50;;
32365;SDS011;18837;46.832;16.838;2022-09-03T12:50:26;1.50;;;1.40;;
32365;SDS011;18837;46.832;16.838;2022-09-03T12:53:04;1.70;;;1.60;;
32365;SDS011;18837;46.832;16.838;2022-09-03T12:55:37;2.33;;;1.30;;
32365;SDS011;18837;46.832;16.838;2022-09-03T13:00:42;1.57;;;1.47;;
32365;SDS011;18837;46.832;16.838;2022-09-03T13:06:11;1.77;;;1.67;;
32365;SDS011;18837;46.832;16.838;2022-09-03T13:09:13;2.33;;;1.50;;
32365;SDS011;18837;46.832;16.838;2022-09-03T13:11:42;1.40;;;1.30;;
32365;SDS011;18837;46.832;16.838;2022-09-03T13:14:09;1.30;;;1.20;;
32365;SDS011;18837;46.832;16.838;2022-09-03T13:40:02;1.63;;;1.53;;
32365;SDS011;18837;46.832;16.838;2022-09-03T13:42:41;1.60;;;1.50;;
32365;SDS011;18837;46.832;16.838;2022-09-03T13:48:05;2.43;;;1.50;;
32365;SDS011;18837;46.832;16.838;2022-09-03T13:51:10;1.77;;;1.40;;
32365;SDS011;18837;46.832;16.838;2022-09-03T14:15:58;1.47;;;1.33;;
32365;SDS011;18837;46.832;16.838;2022-09-03T14:21:06;1.63;;;1.40;;
32365;SDS011;18837;46.832;16.838;2022-09-03T14:26:13;1.60;;;1.50;;
32365;SDS011;18837;46.832;16.838;2022-09-03T14:28:44;1.40;;;1.30;;
32365;SDS011;18837;46.832;16.838;2022-09-03T14:40:45;1.50;;;1.40;;
32365;SDS011;18837;46.832;16.838;2022-09-03T14:44:07;1.70;;;1.47;;
32365;SDS011;18837;46.832;16.838;2022-09-03T14:49:24;1.37;;;1.27;;
32365;SDS011;18837;46.832;16.838;2022-09-03T14:58:06;1.90;;;1.37;;
32365;SDS011;18837;46.832;16.838;2022-09-03T15:12:38;1.60;;;1.40;;
32365;SDS011;18837;46.832;16.838;2022-09-03T15:15:20;1.30;;;1.20;;
32365;SDS011;18837;46.832;16.838;2022-09-03T15:20:47;1.30;;;1.20;;
32365;SDS011;18837;46.832;16.838;2022-09-03T15:31:57;1.33;;;1.23;;
32365;SDS011;18837;46.832;16.838;2022-09-03T15:36:53;1.40;;;1.30;;
32365;SDS011;18837;46.832;16.838;2022-09-03T15:39:23;1.37;;;1.10;;
32365;SDS011;18837;46.832;16.838;2022-09-03T15:44:49;1.63;;;1.53;;
32365;SDS011;18837;46.832;16.838;2022-09-03T15:47:31;1.07;;;1.00;;
32365;SDS011;18837;46.832;16.838;2022-09-03T15:55:31;1.37;;;1.27;;
32365;SDS011;18837;46.832;16.838;2022-09-03T15:58:02;1.60;;;1.50;;
32365;SDS011;18837;46.832;16.838;2022-09-03T16:03:12;1.30;;;1.20;;
32365;SDS011;18837;46.832;16.838;2022-09-03T16:05:47;1.60;;;1.50;;
32365;SDS011;18837;46.832;16.838;2022-09-03T16:25:43;1.40;;;1.30;;
32365;SDS011;18837;46.832;16.838;2022-09-03T16:28:31;1.60;;;1.40;;
32365;SDS011;18837;46.832;16.838;2022-09-03T16:34:04;1.50;;;1.40;;
32365;SDS011;18837;46.832;16.838;2022-09-03T16:36:55;2.17;;;1.43;;
32365;SDS011;18837;46.832;16.838;2022-09-03T16:42:23;1.20;;;1.10;;
32365;SDS011;18837;46.832;16.838;2022-09-03T17:16:27;1.20;;;1.10;;
32365;SDS011;18837;46.832;16.838;2022-09-03T17:27:30;1.90;;;1.53;;
32365;SDS011;18837;46.832;16.838;2022-09-03T17:30:48;1.83;;;1.40;;
32365;SDS011;18837;46.832;16.838;2022-09-03T17:33:30;1.43;;;1.33;;
32365;SDS011;18837;46.832;16.838;2022-09-03T17:36:10;1.53;;;1.40;;
32365;SDS011;18837;46.832;16.838;2022-09-03T17:49:57;3.70;;;1.60;;
32365;SDS011;18837;46.832;16.838;2022-09-03T18:01:23;1.60;;;1.50;;
32365;SDS011;18837;46.832;16.838;2022-09-03T18:03:59;2.00;;;1.43;;
32365;SDS011;18837;46.832;16.838;2022-09-03T18:11:46;1.57;;;1.47;;
32365;SDS011;18837;46.832;16.838;2022-09-03T18:14:16;1.93;;;1.70;;
32365;SDS011;18837;46.832;16.838;2022-09-03T18:19:32;1.93;;;1.50;;
32365;SDS011;18837;46.832;16.838;2022-09-03T18:23:21;2.00;;;1.80;;
32365;SDS011;18837;46.832;16.838;2022-09-03T18:26:14;2.03;;;1.83;;
32365;SDS011;18837;46.832;16.838;2022-09-03T18:29:00;2.83;;;2.10;;
32365;SDS011;18837;46.832;16.838;2022-09-03T18:31:48;2.40;;;2.10;;
32365;SDS011;18837;46.832;16.838;2022-09-03T18:34:34;2.97;;;2.27;;
32365;SDS011;18837;46.832;16.838;2022-09-03T18:37:20;2.33;;;2.03;;
32365;SDS011;18837;46.832;16.838;2022-09-03T18:40:07;1.77;;;1.67;;
32365;SDS011;18837;46.832;16.838;2022-09-03T18:45:57;2.80;;;2.50;;
32365;SDS011;18837;46.832;16.838;2022-09-03T18:51:45;2.40;;;2.20;;
32365;SDS011;18837;46.832;16.838;2022-09-03T19:01:10;3.10;;;2.17;;
32365;SDS011;18837;46.832;16.838;2022-09-03T19:07:10;2.60;;;2.10;;
32365;SDS011;18837;46.832;16.838;2022-09-03T19:10:17;3.47;;;2.43;;
32365;SDS011;18837;46.832;16.838;2022-09-03T19:22:35;2.77;;;2.00;;
32365;SDS011;18837;46.832;16.838;2022-09-03T19:25:22;2.70;;;1.90;;
32365;SDS011;18837;46.832;16.838;2022-09-03T19:40:17;2.63;;;2.10;;
32365;SDS011;18837;46.832;16.838;2022-09-03T19:49:50;3.07;;;1.90;;
32365;SDS011;18837;46.832;16.838;2022-09-03T19:52:49;2.17;;;1.90;;
32365;SDS011;18837;46.832;16.838;2022-09-03T19:55:39;2.47;;;2.13;;
32365;SDS011;18837;46.832;16.838;2022-09-03T19:58:46;2.00;;;1.80;;
32365;SDS011;18837;46.832;16.838;2022-09-03T20:02:00;2.00;;;1.80;;
32365;SDS011;18837;46.832;16.838;2022-09-03T20:04:45;2.30;;;2.00;;
32365;SDS011;18837;46.832;16.838;2022-09-03T20:07:34;2.60;;;2.10;;
32365;SDS011;18837;46.832;16.838;2022-09-03T20:10:21;2.07;;;1.90;;
32365;SDS011;18837;46.832;16.838;2022-09-03T20:13:10;2.03;;;1.87;;
32365;SDS011;18837;46.832;16.838;2022-09-03T20:46:36;2.33;;;2.13;;
32365;SDS011;18837;46.832;16.838;2022-09-03T20:52:09;3.47;;;2.10;;
32365;SDS011;18837;46.832;16.838;2022-09-03T20:54:43;2.67;;;2.00;;
32365;SDS011;18837;46.832;16.838;2022-09-03T21:05:12;3.07;;;2.00;;
32365;SDS011;18837;46.832;16.838;2022-09-03T21:07:48;3.13;;;2.10;;
32365;SDS011;18837;46.832;16.838;2022-09-03T21:10:42;1.83;;;1.73;;
32365;SDS011;18837;46.832;16.838;2022-09-03T21:16:11;1.90;;;1.70;;
32365;SDS011;18837;46.832;16.838;2022-09-03T21:27:06;1.77;;;1.67;;
32365;SDS011;18837;46.832;16.838;2022-09-03T21:32:16;2.30;;;2.10;;
32365;SDS011;18837;46.832;16.838;2022-09-03T21:37:37;1.73;;;1.63;;
32365;SDS011;18837;46.832;16.838;2022-09-03T21:40:06;2.60;;;1.80;;
32365;SDS011;18837;46.832;16.838;2022-09-03T21:45:42;2.20;;;1.93;;
32365;SDS011;18837;46.832;16.838;2022-09-03T21:51:08;2.80;;;2.17;;
32365;SDS011;18837;46.832;16.838;2022-09-03T22:02:11;2.50;;;1.90;;
32365;SDS011;18837;46.832;16.838;2022-09-03T22:04:51;2.20;;;2.00;;
32365;SDS011;18837;46.832;16.838;2022-09-03T22:10:17;2.77;;;1.80;;
32365;SDS011;18837;46.832;16.838;2022-09-03T22:16:16;1.93;;;1.83;;
32365;SDS011;18837;46.832;16.838;2022-09-03T22:19:05;3.23;;;1.87;;
32365;SDS011;18837;46.832;16.838;2022-09-03T22:21:47;2.00;;;1.60;;
32365;SDS011;18837;46.832;16.838;2022-09-03T22:35:43;1.80;;;1.70;;
32365;SDS011;18837;46.832;16.838;2022-09-03T22:43:34;2.30;;;2.00;;
32365;SDS011;18837;46.832;16.838;2022-09-03T22:51:16;1.70;;;1.60;;
32365;SDS011;18837;46.832;16.838;2022-09-03T22:56:28;2.13;;;1.93;;
32365;SDS011;18837;46.832;16.838;2022-09-03T22:59:05;1.97;;;1.80;;
32365;SDS011;18837;46.832;16.838;2022-09-03T23:01:48;2.10;;;1.97;;
32365;SDS011;18837;46.832;16.838;2022-09-03T23:04:30;1.90;;;1.80;;
32365;SDS011;18837;46.832;16.838;2022-09-03T23:10:13;1.83;;;1.73;;
32365;SDS011;18837;46.832;16.838;2022-09-03T23:12:47;1.70;;;1.60;;
32365;SDS011;18837;46.832;16.838;2022-09-03T23:15:26;1.90;;;1.70;;
32365;SDS011;18837;46.832;16.838;2022-09-03T23:18:14;1.83;;;1.73;;
32365;SDS011;18837;46.832;16.838;2022-09-03T23:20:49;3.43;;;2.00;;
32365;SDS011;18837;46.832;16.838;2022-09-03T23:23:20;1.70;;;1.60;;
32365;SDS011;18837;46.832;16.838;2022-09-03T23:25:57;1.80;;;1.70;;
32365;SDS011;18837;46.832;16.838;2022-09-03T23:28:39;2.00;;;1.80;;
32365;SDS011;18837;46.832;16.838;2022-09-03T23:33:43;1.80;;;1.70;;
32365;SDS011;18837;46.832;16.838;2022-09-03T23:38:54;1.50;;;1.40;;
32365;SDS011;18837;46.832;16.838;2022-09-03T23:41:30;2.10;;;1.90;;
32365;SDS011;18837;46.832;16.838;2022-09-03T23:57:39;3.50;;;1.90;;
